Valley City, Illinois
Current Conditions -  °F | °C
As of 10:15 AM on Friday 24 Oct 2014 (Local Time) from KPPQ Reporting Station
Haze Haze  
Wind Chill: 57°   Ceiling: 200
Heat Index: 57°   Visibility: 0.75mi
Dew Point: 56°   Wind: 3mph
Humidity: 94%   Direction: 210°SSW
Pressure: 30.12"   Gusts: NA
Location:  39.7046°N, 90.7176°W
Report Text: KPPQ 241515Z AUTO 21003KT 3/4SM BR OVC002 14/13 A3012 RMK AO2 T01410132
Loading
Personal Weather Stations






























Interactive Weather Map
Tropical Storm Tracking
New forecast layout! Learn more

10-Day Weather Forecast

Advertisements
Track Severe Weather on mobile